• Join FlightAware (Why Join?)
  • Login
  • US Flag 
04:56PM EDT


 

Airport Tracker/Info


-or-


 

Live Flight TrackerFlight Track Log ✈ EJA831 ✈ 22-Jun-2013 ✈ KPVD - KLCI

Flight Track Log - Related Links

Times and Time Zones

All times are in EDT time to prevent confusion due to time zone crossing. See the EJA831 flight status page for this flight to view local times or setup timezone preferences in your user account.

Time Position Orientation Groundspeed Altitude Reporting Facility
EDT Latitude Longitude Course Direction KTS MPH feet Rate Location/Type
02:43PM 41.7122 -71.4361 267° West 171 197 700  Level Boston Center
02:44PM 41.7089 -71.5308 267° West 230 265 3,900 1,980 Climbing Boston Center
02:45PM 41.7614 -71.5689 332° Northwest 259 298 4,800 2,340 Climbing Boston Center
02:46PM 41.8383 -71.5622 North 277 319 8,700 1,500 Climbing Boston Center
02:47PM 41.9667 -71.5000 20° North 291 335 8,900 60 Climbing KA90
02:48PM 42.0333 -71.5000 360° North 284 327 8,900  Level KA90
02:49PM 42.1167 -71.4833 North 288 331 9,000  Climbing KA90
02:50PM 42.2000 -71.4667 North 289 333 9,000  Level KA90
02:51PM 42.2667 -71.4667 360° North 288 331 9,000  Level KA90
02:52PM 42.3500 -71.4500 North 292 336 9,000  Level KA90
02:53PM 42.4333 -71.4333 North 292 336 9,000  Level KA90
02:54PM 42.5167 -71.4167 North 290 334 9,000  Level KA90
02:55PM 42.6000 -71.4167 360° North 292 336 9,000  Level KA90
02:56PM 42.6833 -71.4000 North 291 335 9,000 -240 Level KA90
02:57PM 42.7500 -71.3833 10° North 278 320 8,600 -1,140 Descending KA90
02:58PM 42.8333 -71.3667 North 274 315 6,800 -1,920 Descending KA90
02:59PM 42.9000 -71.3667 360° North 267 307 5,000 -960 Descending KA90
03:00PM 42.9667 -71.3833 350° North 274 315 5,000  Level KA90
03:01PM 43.0500 -71.3833 360° North 271 312 5,000  Level KA90
03:02PM 43.1333 -71.3833 360° North 272 313 5,000  Level KA90
03:03PM 43.2000 -71.3833 360° North 272 313 5,000  Level KA90
03:04PM 43.2833 -71.4000 352° North 272 313 5,000  Level KA90
03:05PM 43.3500 -71.4000 360° North 271 312 5,000 -480 Level KA90
03:06PM 43.4167 -71.4000 360° North 271 312 4,200 -1,440 Descending KA90
03:07PM 43.5000 -71.4000 360° North 267 307 2,200 -1,020 Descending KA90
03:08PM 43.5667 -71.4167 350° North 258 297 2,100 -60 Descending KA90
03:09PM 43.6500 -71.4167 360° North 260 299 2,100  Level KA90
03:10PM 43.6667 -71.3833 55° Northeast 264 304 2,100 -60 Level KA90
03:12PM 43.6167 -71.3000 130° Southeast 178 205 2,000 -60 Descending KA90
03:13PM 43.6167 -71.3000 180° South 178 205 2,000  Level KA90